Time;durP1;ratioP1;P1;durP2;ratioP2;P2;SDS_P1;SDS_P2;PMS_P1;PMS_P2;Temp;Humidity;BMP_temperature;BMP_pressure;BME280_temperature;BME280_humidity;BME280_pressure;Samples;Min_cycle;Max_cycle;Signal;HPM_P1;HPM_P2
2022/12/04 00:01:23;;;;;;;53.72;34.15;;;9.50;86.00;;;;;;4990946;28;20058;-64
2022/12/04 00:03:59;;;;;;;51.33;33.00;;;9.40;85.80;;;;;;4980747;28;20033;-57
2022/12/04 00:06:25;;;;;;;55.28;35.03;;;9.30;86.60;;;;;;4992882;28;20030;-58
2022/12/04 00:08:51;;;;;;;53.95;34.97;;;9.30;85.90;;;;;;4993529;28;20069;-53
2022/12/04 00:11:20;;;;;;;51.45;33.20;;;9.20;85.90;;;;;;4991652;28;20042;-54
2022/12/04 00:13:46;;;;;;;59.80;34.30;;;9.10;86.50;;;;;;4981071;28;20022;-67
2022/12/04 00:16:15;;;;;;;52.13;32.75;;;9.00;86.40;;;;;;4993330;28;20042;-59
2022/12/04 00:18:41;;;;;;;50.63;32.20;;;9.00;86.50;;;;;;4993363;28;20471;-63
2022/12/04 00:21:09;;;;;;;53.60;33.30;;;9.00;86.50;;;;;;4980625;28;20042;-56
2022/12/04 00:23:35;;;;;;;51.22;33.35;;;8.90;86.60;;;;;;4977164;28;20535;-61
2022/12/04 00:26:04;;;;;;;51.70;33.67;;;8.70;87.10;;;;;;4993472;28;20026;-58
2022/12/04 00:28:30;;;;;;;50.38;33.08;;;8.70;87.30;;;;;;4992895;28;20030;-59
2022/12/04 00:30:55;;;;;;;54.88;34.33;;;8.90;86.80;;;;;;4991429;28;20053;-62
2022/12/04 00:33:22;;;;;;;56.53;34.65;;;8.90;86.80;;;;;;4993157;28;20022;-57
2022/12/04 00:35:47;;;;;;;52.17;34.13;;;8.80;87.40;;;;;;4993190;28;20034;-67
2022/12/04 00:38:13;;;;;;;52.97;34.42;;;8.80;87.10;;;;;;4992999;28;20084;-57
2022/12/04 00:40:39;;;;;;;56.35;35.70;;;8.90;87.10;;;;;;4992486;28;20026;-59
2022/12/04 00:43:04;;;;;;;57.10;35.53;;;8.80;87.00;;;;;;4992872;28;20033;-59
2022/12/04 00:45:30;;;;;;;60.33;37.95;;;8.70;87.10;;;;;;4992203;28;20045;-59
2022/12/04 00:47:55;;;;;;;64.88;37.28;;;8.80;87.10;;;;;;4992688;28;20061;-62
2022/12/04 00:50:21;;;;;;;60.08;37.55;;;8.70;87.40;;;;;;4974547;28;20113;-60
2022/12/04 00:52:47;;;;;;;60.13;36.75;;;8.60;87.30;;;;;;4984877;28;20102;-61
2022/12/04 00:55:12;;;;;;;57.92;36.22;;;8.80;87.10;;;;;;4978741;28;20468;-64
2022/12/04 00:57:38;;;;;;;62.50;38.88;;;8.80;87.00;;;;;;4978893;28;20037;-63
2022/12/04 01:00:06;;;;;;;58.90;36.10;;;8.60;87.30;;;;;;4992996;28;20026;-62
2022/12/04 01:02:31;;;;;;;56.67;36.58;;;8.50;87.90;;;;;;4976096;28;20430;-56
2022/12/04 01:05:00;;;;;;;60.67;38.60;;;8.60;87.30;;;;;;4991929;28;20459;-62
2022/12/04 01:07:25;;;;;;;61.92;37.33;;;8.60;87.50;;;;;;4996370;28;20033;-64
2022/12/04 01:09:51;;;;;;;63.90;37.55;;;8.60;87.40;;;;;;4996903;28;20022;-55
2022/12/04 01:12:16;;;;;;;62.80;37.75;;;8.60;87.40;;;;;;4979578;28;20042;-63
2022/12/04 01:14:42;;;;;;;59.90;36.13;;;8.50;87.70;;;;;;4983066;28;20018;-63
2022/12/04 01:17:08;;;;;;;63.22;37.35;;;8.40;87.80;;;;;;4996148;28;20043;-65
2022/12/04 01:19:33;;;;;;;62.20;36.35;;;8.60;87.30;;;;;;4995709;28;20124;-60
2022/12/04 01:21:59;;;;;;;60.05;38.80;;;8.50;87.80;;;;;;4989927;28;20045;-60
2022/12/04 01:24:24;;;;;;;62.95;39.13;;;8.30;88.10;;;;;;4990536;28;20026;-56
2022/12/04 01:26:50;;;;;;;60.33;38.03;;;8.40;88.00;;;;;;4990668;28;20030;-66
2022/12/04 01:29:15;;;;;;;58.95;35.85;;;8.30;88.30;;;;;;4996150;28;20134;-62
2022/12/04 01:31:41;;;;;;;62.28;37.83;;;8.40;88.00;;;;;;4995254;28;20042;-61
2022/12/04 01:34:07;;;;;;;60.88;36.28;;;8.20;88.50;;;;;;4996181;28;20049;-63
2022/12/04 01:36:32;;;;;;;61.65;37.05;;;8.20;88.40;;;;;;4995933;28;20030;-64
2022/12/04 01:38:58;;;;;;;62.15;36.92;;;8.30;88.20;;;;;;4994978;28;20088;-63
2022/12/04 01:41:29;;;;;;;62.33;37.22;;;8.30;88.30;;;;;;4995836;28;20035;-58
2022/12/04 01:44:12;;;;;;;66.63;37.03;;;8.30;88.20;;;;;;4996450;28;20045;-64
2022/12/04 01:46:40;;;;;;;67.60;37.80;;;8.10;88.60;;;;;;4976287;28;20038;-67
2022/12/04 01:49:17;;;;;;;63.67;36.95;;;8.20;88.70;;;;;;4991995;28;20022;-61
2022/12/04 01:51:48;;;;;;;69.15;39.63;;;8.10;88.80;;;;;;4995857;28;20109;-63
2022/12/04 01:54:21;;;;;;;59.80;37.70;;;7.90;89.20;;;;;;4995572;28;20018;-54
2022/12/04 01:56:53;;;;;;;65.25;36.47;;;7.90;89.30;;;;;;4996048;28;20031;-64
2022/12/04 01:59:22;;;;;;;62.10;35.13;;;7.90;89.40;;;;;;4993517;28;20442;-63
2022/12/04 02:02:02;;;;;;;63.40;36.58;;;7.90;89.40;;;;;;4976227;28;20031;-58
2022/12/04 02:04:29;;;;;;;63.58;36.50;;;8.10;88.80;;;;;;4976483;28;20027;-64
2022/12/04 02:06:55;;;;;;;60.55;36.35;;;7.90;89.20;;;;;;5055168;22;20057;-61
2022/12/04 02:09:22;;;;;;;63.38;36.58;;;8.00;89.00;;;;;;5011973;28;20421;-49
2022/12/04 02:12:01;;;;;;;65.03;37.13;;;8.10;88.60;;;;;;5014157;28;20088;-54
2022/12/04 02:14:33;;;;;;;62.30;35.05;;;8.20;88.30;;;;;;5015594;28;20092;-53
2022/12/04 02:17:15;;;;;;;64.13;36.58;;;8.20;88.50;;;;;;5014738;28;20033;-56
2022/12/04 02:20:00;;;;;;;;;;;7.90;89.20;;;;;;5013776;28;20025;-56
2022/12/04 02:22:56;;;;;;;61.20;35.65;;;8.20;89.00;;;;;;5015284;28;20380;-54
2022/12/04 02:25:46;;;;;;;64.18;35.88;;;8.10;89.10;;;;;;5014739;28;20505;-52
2022/12/04 02:28:18;;;;;;;60.28;35.33;;;8.20;88.80;;;;;;5014995;28;20445;-58
2022/12/04 02:30:45;;;;;;;64.22;36.78;;;8.10;89.00;;;;;;5014279;28;20069;-53
2022/12/04 02:33:30;;;;;;;60.85;35.83;;;8.10;88.90;;;;;;5015037;28;20028;-56
2022/12/04 02:36:22;;;;;;;61.38;36.10;;;7.90;89.30;;;;;;5014613;28;20061;-54
2022/12/04 02:39:10;;;;;;;59.65;36.15;;;8.00;89.30;;;;;;5009966;28;20030;-56
2022/12/04 02:42:01;;;;;;;66.93;37.83;;;7.80;89.90;;;;;;5013240;28;20034;-53
2022/12/04 02:44:37;;;;;;;67.22;36.85;;;7.80;90.00;;;;;;5000958;28;20057;-53
2022/12/04 02:47:09;;;;;;;64.55;37.70;;;8.00;89.70;;;;;;5010793;28;20512;-64
2022/12/04 02:49:48;;;;;;;63.45;35.60;;;7.90;89.70;;;;;;5014648;28;20037;-56
2022/12/04 02:52:19;;;;;;;65.65;37.47;;;7.80;89.90;;;;;;5013611;28;20501;-58
2022/12/04 02:54:50;;;;;;;74.00;40.67;;;7.90;89.80;;;;;;5014046;28;20528;-58
2022/12/04 02:57:24;;;;;;;67.10;37.78;;;8.00;89.60;;;;;;5013982;28;20057;-53
2022/12/04 02:59:52;;;;;;;63.30;37.45;;;7.90;89.80;;;;;;5012038;28;20106;-53
2022/12/04 03:02:52;;;;;;;62.22;36.45;;;7.90;89.70;;;;;;5014670;28;20018;-53
2022/12/04 03:05:22;;;;;;;68.20;37.97;;;7.90;89.90;;;;;;4997783;28;20113;-55
2022/12/04 03:07:54;;;;;;;64.82;37.50;;;7.80;90.00;;;;;;5013501;28;20030;-56
2022/12/04 03:10:23;;;;;;;;;;;7.80;90.10;;;;;;5011015;28;20026;-53
2022/12/04 03:12:55;;;;;;;69.38;38.63;;;7.90;90.00;;;;;;5001638;28;19928;-56
2022/12/04 03:15:36;;;;;;;63.88;36.53;;;7.80;89.70;;;;;;5013479;28;20044;-54
2022/12/04 03:18:06;;;;;;;68.88;37.05;;;7.80;90.00;;;;;;5013338;28;20487;-54
2022/12/04 03:20:35;;;;;;;63.25;38.03;;;7.80;90.10;;;;;;5014099;28;20368;-52
2022/12/04 03:23:22;;;;;;;64.70;36.97;;;7.80;90.00;;;;;;5013400;28;20494;-51
2022/12/04 03:26:10;;;;;;;67.00;38.67;;;7.80;90.00;;;;;;4998163;28;20379;-58
2022/12/04 03:29:02;;;;;;;64.50;36.75;;;7.60;90.20;;;;;;5011002;28;20441;-53
2022/12/04 03:31:53;;;;;;;61.50;35.80;;;7.50;90.40;;;;;;5013970;28;20418;-50
2022/12/04 03:35:02;;;;;;;66.27;39.03;;;7.60;90.40;;;;;;5012304;28;20042;-52
2022/12/04 03:37:55;;;;;;;66.18;37.17;;;7.60;90.30;;;;;;5005314;28;20293;-51
2022/12/04 03:40:49;;;;;;;60.80;34.65;;;7.70;90.20;;;;;;5013618;28;20037;-56
2022/12/04 03:43:24;;;;;;;65.90;36.88;;;7.60;90.40;;;;;;5009178;28;20414;-51
2022/12/04 03:46:01;;;;;;;63.95;36.47;;;7.50;90.40;;;;;;5012807;28;20030;-53
2022/12/04 03:48:46;;;;;;;60.08;35.35;;;7.60;90.40;;;;;;5013525;28;20026;-56
2022/12/04 03:51:19;;;;;;;59.88;34.53;;;7.40;90.80;;;;;;5013356;28;20046;-54
2022/12/04 03:53:53;;;;;;;63.83;36.72;;;7.50;90.70;;;;;;5013295;28;20018;-55
2022/12/04 03:56:33;;;;;;;62.20;36.45;;;7.40;90.60;;;;;;5012328;28;20394;-51
2022/12/04 03:59:06;;;;;;;63.70;36.08;;;7.30;90.70;;;;;;5013400;28;20028;-53
2022/12/04 04:01:39;;;;;;;62.83;34.80;;;7.30;90.70;;;;;;5013634;28;20076;-60
2022/12/04 04:04:09;;;;;;;64.88;37.42;;;7.30;90.80;;;;;;5013125;28;20482;-57
2022/12/04 04:06:42;;;;;;;58.58;36.20;;;7.40;90.90;;;;;;5020432;22;20045;-49
2022/12/04 04:09:14;;;;;;;63.80;37.53;;;7.40;90.80;;;;;;5007960;28;20025;-54
2022/12/04 04:11:59;;;;;;;63.40;36.63;;;7.30;90.80;;;;;;5013113;28;20038;-51
2022/12/04 04:26:17;;;;;;;57.83;34.83;;;7.60;90.50;;;;;;4996836;28;20038;-55
2022/12/04 04:28:43;;;;;;;64.85;36.00;;;7.50;90.70;;;;;;4993516;28;20023;-51
2022/12/04 04:32:01;;;;;;;64.65;37.42;;;7.40;90.70;;;;;;4993307;28;20402;-54
2022/12/04 04:34:49;;;;;;;60.00;34.80;;;7.40;90.90;;;;;;4931188;28;20364;-54
2022/12/04 04:37:39;;;;;;;57.70;34.42;;;7.60;90.60;;;;;;4999735;28;20057;-52
2022/12/04 04:40:29;;;;;;;58.70;35.72;;;7.50;90.60;;;;;;4995885;28;20045;-52
2022/12/04 04:43:19;;;;;;;60.75;35.95;;;7.60;90.70;;;;;;4997551;28;20434;-55
2022/12/04 04:45:51;;;;;;;60.85;35.13;;;7.50;90.70;;;;;;5012991;28;20501;-54
2022/12/04 04:48:28;;;;;;;64.07;36.08;;;7.50;90.70;;;;;;4997372;28;20022;-54
2022/12/04 04:50:54;;;;;;;61.90;36.03;;;7.30;90.80;;;;;;4997097;28;20042;-55
2022/12/04 04:53:28;;;;;;;59.22;36.30;;;7.40;91.20;;;;;;4997345;28;20073;-54
2022/12/04 04:55:54;;;;;;;62.15;36.35;;;7.40;90.90;;;;;;5013226;28;20037;-52
2022/12/04 04:58:20;;;;;;;60.88;36.55;;;7.30;90.90;;;;;;4997561;28;20018;-55
2022/12/04 05:00:58;;;;;;;59.10;35.20;;;7.40;91.00;;;;;;5008087;28;20022;-53
2022/12/04 05:03:24;;;;;;;62.40;36.08;;;7.20;91.10;;;;;;5010216;28;20491;-52
2022/12/04 05:05:49;;;;;;;60.33;35.33;;;7.30;91.10;;;;;;4997564;28;20030;-55
2022/12/04 05:08:15;;;;;;;57.42;36.38;;;7.50;91.00;;;;;;5016328;28;20037;-53
2022/12/04 05:10:41;;;;;;;59.88;36.38;;;7.20;91.20;;;;;;5016043;28;20022;-57
2022/12/04 05:13:08;;;;;;;60.22;35.05;;;7.30;91.10;;;;;;5013001;28;20122;-52
2022/12/04 05:15:33;;;;;;;59.15;36.38;;;7.40;91.00;;;;;;5011763;28;20774;-57
2022/12/04 05:17:59;;;;;;;58.05;35.85;;;7.50;90.90;;;;;;5015833;28;20518;-54
2022/12/04 05:20:25;;;;;;;59.08;34.72;;;7.40;91.00;;;;;;5016289;28;20026;-53
2022/12/04 05:22:50;;;;;;;55.35;35.22;;;7.50;90.90;;;;;;5015852;28;20105;-55
2022/12/04 05:25:16;;;;;;;65.78;37.92;;;7.50;90.80;;;;;;5011058;28;20034;-58
2022/12/04 05:27:41;;;;;;;59.63;36.42;;;7.50;90.80;;;;;;5002932;28;20048;-59
2022/12/04 05:30:08;;;;;;;59.40;36.35;;;7.50;90.80;;;;;;5015557;28;20461;-53
2022/12/04 05:32:34;;;;;;;56.95;34.80;;;7.50;90.90;;;;;;5015906;28;20037;-51
2022/12/04 05:35:00;;;;;;;59.63;36.00;;;7.40;91.00;;;;;;5008354;28;20032;-55
2022/12/04 05:37:25;;;;;;;56.13;36.72;;;7.40;91.10;;;;;;5015712;28;20109;-52
2022/12/04 05:39:51;;;;;;;59.63;36.83;;;7.40;91.00;;;;;;5015700;28;20030;-54
2022/12/04 05:42:17;;;;;;;62.03;36.80;;;7.40;91.00;;;;;;5010190;28;20014;-60
2022/12/04 05:44:42;;;;;;;61.05;35.60;;;7.50;90.90;;;;;;5006299;28;20170;-53
2022/12/04 05:47:08;;;;;;;53.08;33.97;;;7.70;90.70;;;;;;5004807;28;20057;-58
2022/12/04 05:49:34;;;;;;;61.47;37.20;;;7.60;90.70;;;;;;5012255;28;20116;-53
2022/12/04 05:52:01;;;;;;;55.40;36.30;;;7.80;90.60;;;;;;5014077;28;20038;-62
2022/12/04 05:54:27;;;;;;;59.22;36.10;;;7.80;90.50;;;;;;5014273;28;20018;-55
2022/12/04 05:56:53;;;;;;;62.22;36.30;;;7.90;90.50;;;;;;5015008;28;20038;-53
2022/12/04 05:59:18;;;;;;;62.92;35.92;;;7.80;90.40;;;;;;5011984;28;20022;-54
2022/12/04 06:01:45;;;;;;;56.95;36.35;;;7.90;90.40;;;;;;5010552;28;20037;-59
2022/12/04 06:04:10;;;;;;;57.10;36.08;;;7.90;90.40;;;;;;5014900;28;20512;-54
2022/12/04 06:06:37;;;;;;;54.05;34.78;;;7.90;90.30;;;;;;5014477;28;20521;-59
2022/12/04 06:09:05;;;;;;;57.30;34.33;;;7.90;90.30;;;;;;5014371;28;20266;-54
2022/12/04 06:11:33;;;;;;;59.45;36.60;;;7.80;90.40;;;;;;5013657;28;20034;-54
2022/12/04 06:14:01;;;;;;;53.78;34.55;;;7.90;90.30;;;;;;5012276;28;20033;-61
2022/12/04 06:16:30;;;;;;;56.75;34.65;;;7.90;90.40;;;;;;5011027;28;20057;-55
2022/12/04 06:18:58;;;;;;;59.25;36.67;;;7.70;90.40;;;;;;5008392;28;20494;-54
2022/12/04 06:21:26;;;;;;;57.40;36.08;;;7.90;90.30;;;;;;5013994;28;20083;-58
2022/12/04 06:23:52;;;;;;;55.10;36.40;;;8.00;90.30;;;;;;5014727;28;20108;-60
2022/12/04 06:26:18;;;;;;;56.67;36.80;;;8.00;90.20;;;;;;5018667;28;20060;-59
2022/12/04 06:28:44;;;;;;;57.40;36.50;;;8.00;90.30;;;;;;5014206;28;20414;-64
2022/12/04 06:31:12;;;;;;;61.85;37.85;;;7.90;90.20;;;;;;5013312;28;20458;-54
2022/12/04 06:33:39;;;;;;;57.55;37.28;;;8.00;90.10;;;;;;5012659;28;20368;-58
2022/12/04 06:36:11;;;;;;;55.13;36.60;;;8.00;90.20;;;;;;5013715;28;20034;-51
2022/12/04 06:38:38;;;;;;;;;;;8.00;90.20;;;;;;5014052;28;20022;-54
2022/12/04 06:41:05;;;;;;;57.35;36.08;;;8.10;90.10;;;;;;5013027;28;19929;-58
2022/12/04 06:43:31;;;;;;;58.75;37.47;;;8.00;90.10;;;;;;5013838;28;20117;-56
2022/12/04 06:46:15;;;;;;;56.10;36.42;;;7.70;90.40;;;;;;5012463;28;20100;-57
2022/12/04 06:48:41;;;;;;;61.67;37.10;;;7.80;90.40;;;;;;5009810;28;20483;-56
2022/12/04 06:51:19;;;;;;;58.40;36.25;;;7.90;90.20;;;;;;5010622;28;20107;-54
2022/12/04 06:53:46;;;;;;;60.88;38.88;;;7.90;90.20;;;;;;5012163;28;20037;-56
2022/12/04 06:56:16;;;;;;;56.30;36.72;;;7.70;90.40;;;;;;5008537;28;20104;-54
2022/12/04 06:58:44;;;;;;;61.70;37.25;;;7.90;90.40;;;;;;5012974;28;20026;-59
2022/12/04 07:01:12;;;;;;;59.22;37.85;;;7.90;90.30;;;;;;5012641;28;20085;-68
2022/12/04 07:03:38;;;;;;;58.60;37.22;;;7.80;90.30;;;;;;5012970;28;20049;-55
2022/12/04 07:06:14;;;;;;;61.85;39.50;;;7.80;90.50;;;;;;5013469;28;20406;-64
2022/12/04 07:08:40;;;;;;;58.45;37.28;;;7.80;90.40;;;;;;5013255;28;20030;-57
2022/12/04 07:11:06;;;;;;;59.92;38.22;;;7.90;90.40;;;;;;5010408;28;20037;-54
2022/12/04 07:13:31;;;;;;;65.25;39.95;;;7.80;90.30;;;;;;5009316;28;20104;-61
2022/12/04 07:16:02;;;;;;;58.00;39.30;;;7.90;90.30;;;;;;5013644;28;20029;-54
2022/12/04 07:18:28;;;;;;;58.45;37.65;;;7.50;90.50;;;;;;5014009;28;20022;-55
2022/12/04 07:20:54;;;;;;;61.30;39.83;;;7.60;90.80;;;;;;5013307;28;20030;-52
2022/12/04 07:23:20;;;;;;;57.63;37.83;;;7.60;90.60;;;;;;5007266;28;20498;-63
2022/12/04 07:25:45;;;;;;;58.20;36.92;;;7.40;90.70;;;;;;4994226;28;20097;-53
2022/12/04 07:28:11;;;;;;;60.38;38.97;;;7.30;91.10;;;;;;4993802;28;20031;-59
2022/12/04 07:30:37;;;;;;;62.45;39.00;;;7.30;91.00;;;;;;4993931;28;20030;-54
2022/12/04 07:33:04;;;;;;;61.22;39.78;;;7.50;90.80;;;;;;5008987;28;20530;-51
2022/12/04 07:35:30;;;;;;;61.13;38.85;;;7.30;90.80;;;;;;5006653;28;20030;-56
2022/12/04 07:37:55;;;;;;;63.22;39.95;;;7.50;90.90;;;;;;5013009;28;20105;-54
2022/12/04 07:40:21;;;;;;;62.85;38.85;;;7.60;90.60;;;;;;5013464;28;20135;-57
2022/12/04 07:42:47;;;;;;;61.22;39.42;;;7.70;90.60;;;;;;4997653;28;20023;-55
2022/12/04 07:45:12;;;;;;;61.35;39.33;;;7.40;90.80;;;;;;4994077;28;20023;-51
2022/12/04 07:47:38;;;;;;;59.45;38.28;;;7.50;90.80;;;;;;4994155;28;20033;-56
2022/12/04 07:50:05;;;;;;;55.63;37.00;;;7.50;90.80;;;;;;4993986;28;20034;-61
2022/12/04 07:52:35;;;;;;;65.03;40.78;;;7.40;90.80;;;;;;5002276;28;20442;-69
2022/12/04 07:55:01;;;;;;;64.85;38.92;;;7.40;90.90;;;;;;4997316;28;20024;-69
2022/12/04 07:57:27;;;;;;;62.40;40.17;;;7.60;90.90;;;;;;4993694;28;20117;-69
2022/12/04 07:59:53;;;;;;;59.20;38.60;;;7.50;90.90;;;;;;5005592;28;20056;-62
2022/12/04 08:02:19;;;;;;;64.78;39.50;;;7.60;90.80;;;;;;5007437;28;20034;-60
2022/12/04 08:04:45;;;;;;;59.92;38.75;;;7.50;90.80;;;;;;5000975;28;20096;-67
2022/12/04 08:07:11;;;;;;;63.58;40.55;;;7.60;90.70;;;;;;5013027;28;20037;-69
2022/12/04 08:09:37;;;;;;;68.15;41.42;;;7.40;90.80;;;;;;5013073;28;20544;-66
2022/12/04 08:12:02;;;;;;;65.18;40.95;;;7.50;91.00;;;;;;5002121;28;20042;-60
2022/12/04 08:14:28;;;;;;;66.60;40.53;;;7.60;90.80;;;;;;5016787;28;20028;-65
2022/12/04 08:16:54;;;;;;;63.10;40.85;;;7.60;90.80;;;;;;5026009;28;20037;-67
2022/12/04 08:19:20;;;;;;;59.15;39.72;;;7.60;90.80;;;;;;5008046;28;20030;-67
2022/12/04 08:21:46;;;;;;;60.60;40.13;;;7.50;90.80;;;;;;5005992;28;20033;-67
2022/12/04 08:24:11;;;;;;;65.70;40.03;;;7.50;90.90;;;;;;4999734;28;20029;-66
2022/12/04 08:26:37;;;;;;;61.05;40.13;;;7.50;91.00;;;;;;5010195;28;20126;-60
2022/12/04 08:29:03;;;;;;;63.42;41.45;;;7.50;90.90;;;;;;5009815;28;20030;-62
2022/12/04 08:31:31;;;;;;;64.32;40.60;;;7.50;90.90;;;;;;4994745;28;20387;-68
2022/12/04 08:34:00;;;;;;;62.22;38.58;;;7.60;90.80;;;;;;4993535;28;20479;-64
2022/12/04 08:36:26;;;;;;;60.40;38.60;;;7.70;90.80;;;;;;4998094;28;20378;-65
2022/12/04 08:38:52;;;;;;;62.35;40.67;;;7.60;90.90;;;;;;5009911;28;20026;-59
2022/12/04 08:41:21;;;;;;;64.00;38.88;;;7.80;91.00;;;;;;5019101;28;20041;-67
2022/12/04 08:43:47;;;;;;;63.97;40.67;;;7.90;90.70;;;;;;5024273;28;20022;-65
2022/12/04 08:46:15;;;;;;;60.83;39.80;;;7.90;90.80;;;;;;5005829;28;20439;-63
2022/12/04 08:48:40;;;;;;;62.63;40.70;;;7.80;90.60;;;;;;5009288;28;20364;-65
2022/12/04 08:51:07;;;;;;;60.90;39.65;;;7.90;90.90;;;;;;5007714;28;20084;-66
2022/12/04 08:53:35;;;;;;;62.25;40.45;;;7.90;90.80;;;;;;5011203;28;20084;-68
2022/12/04 08:56:01;;;;;;;64.47;38.60;;;8.00;90.60;;;;;;4998667;28;20101;-64
2022/12/04 08:58:26;;;;;;;66.95;40.95;;;8.00;90.60;;;;;;5004856;28;20065;-67
2022/12/04 09:00:52;;;;;;;61.28;39.80;;;8.10;90.90;;;;;;5002045;28;20097;-62
2022/12/04 09:03:19;;;;;;;61.28;38.50;;;8.30;90.60;;;;;;5012030;28;20034;-67
2022/12/04 09:05:45;;;;;;;62.90;40.58;;;8.30;90.30;;;;;;5012547;28;20042;-67
2022/12/04 09:08:12;;;;;;;63.97;42.15;;;8.30;90.40;;;;;;5009259;28;20129;-65
2022/12/04 09:10:38;;;;;;;62.55;41.13;;;8.30;90.00;;;;;;5011347;28;20360;-64
2022/12/04 09:13:05;;;;;;;61.95;40.65;;;8.20;90.40;;;;;;5007376;28;20041;-65
2022/12/04 09:15:30;;;;;;;62.88;39.42;;;8.30;90.30;;;;;;5002680;28;20045;-63
2022/12/04 09:17:57;;;;;;;60.88;39.88;;;8.30;90.10;;;;;;5006422;28;20030;-65
2022/12/04 09:20:23;;;;;;;61.53;38.67;;;8.30;89.90;;;;;;5006518;28;20022;-63
2022/12/04 09:22:48;;;;;;;64.97;41.45;;;7.90;90.30;;;;;;5004410;28;20503;-64
2022/12/04 09:25:14;;;;;;;64.53;41.22;;;8.00;90.50;;;;;;5004273;28;20033;-66
2022/12/04 09:27:43;;;;;;;63.88;41.63;;;8.00;90.40;;;;;;5017985;28;20025;-62
2022/12/04 09:30:11;;;;;;;64.05;41.05;;;8.10;90.10;;;;;;5010210;28;20073;-59
2022/12/04 09:32:37;;;;;;;66.07;41.63;;;8.00;90.40;;;;;;5003754;28;20052;-64
2022/12/04 09:35:03;;;;;;;60.85;40.28;;;8.10;90.60;;;;;;5013610;28;20182;-62
2022/12/04 09:37:30;;;;;;;63.25;41.58;;;8.20;90.40;;;;;;5013918;28;20026;-62
2022/12/04 09:39:56;;;;;;;63.65;41.22;;;8.20;90.60;;;;;;5010725;28;20014;-62
2022/12/04 09:42:28;;;;;;;63.17;40.75;;;8.10;90.50;;;;;;5011073;28;20525;-62
2022/12/04 09:45:05;;;;;;;65.45;42.85;;;8.00;90.40;;;;;;5013280;28;20029;-59
2022/12/04 09:47:37;;;;;;;60.78;40.25;;;8.20;90.40;;;;;;5009050;28;20478;-66
2022/12/04 09:50:25;;;;;;;63.70;40.97;;;8.30;90.60;;;;;;5011179;28;20100;-65
2022/12/04 09:53:07;;;;;;;64.90;41.63;;;8.10;90.40;;;;;;5005852;28;20096;-53
2022/12/04 09:55:47;;;;;;;64.90;40.78;;;8.10;90.50;;;;;;5008746;28;20108;-62
2022/12/04 09:58:20;;;;;;;65.38;42.95;;;8.20;90.40;;;;;;5002504;28;20052;-65
2022/12/04 10:00:49;;;;;;;63.83;40.95;;;8.10;90.20;;;;;;5013208;28;20513;-66
2022/12/04 10:03:20;;;;;;;63.13;41.72;;;7.90;90.30;;;;;;5003547;28;20042;-66
2022/12/04 10:06:07;;;;;;;64.45;40.50;;;7.80;90.90;;;;;;5007664;28;20547;-66
2022/12/04 10:08:39;;;;;;;63.38;41.55;;;8.20;91.00;;;;;;5003953;28;20108;-62
2022/12/04 10:11:16;;;;;;;64.22;41.17;;;8.00;90.50;;;;;;5006609;28;20042;-49
2022/12/04 10:14:12;;;;;;;65.50;41.45;;;8.20;90.40;;;;;;5010138;28;20117;-54
2022/12/04 10:17:15;;;;;;;64.80;42.72;;;8.30;90.50;;;;;;5007467;28;20041;-66
2022/12/04 10:20:06;;;;;;;61.40;41.20;;;8.50;90.20;;;;;;5015637;28;20029;-66
2022/12/04 10:22:44;;;;;;;65.63;42.60;;;8.60;90.00;;;;;;4992874;28;20050;-53
2022/12/04 10:25:17;;;;;;;63.10;40.88;;;8.60;89.70;;;;;;5006832;28;20036;-49
2022/12/04 10:27:57;;;;;;;63.70;40.65;;;8.30;89.80;;;;;;5003039;28;20037;-53
2022/12/04 10:30:26;;;;;;;60.65;40.75;;;8.30;90.10;;;;;;5006390;28;20030;-60
2022/12/04 10:33:03;;;;;;;62.85;41.40;;;8.40;89.80;;;;;;5008818;28;20124;-65
2022/12/04 10:35:36;;;;;;;63.25;43.08;;;8.40;89.70;;;;;;5008115;28;20025;-52
2022/12/04 10:38:33;;;;;;;59.70;40.33;;;8.60;89.50;;;;;;5014928;28;20025;-64
2022/12/04 10:41:04;;;;;;;57.78;37.45;;;8.60;89.20;;;;;;5019643;28;20034;-50
2022/12/04 10:43:45;;;;;;;58.57;39.53;;;8.30;89.50;;;;;;5011077;28;20026;-50
2022/12/04 10:46:29;;;;;;;61.22;40.05;;;8.50;89.70;;;;;;5002624;28;20029;-66
2022/12/04 10:48:59;;;;;;;58.72;37.85;;;8.60;89.50;;;;;;5006324;28;20168;-56
2022/12/04 10:51:25;;;;;;;59.55;39.88;;;8.70;89.50;;;;;;5022599;28;20049;-60
2022/12/04 10:53:51;;;;;;;61.30;40.22;;;8.90;89.10;;;;;;5014163;28;20421;-55
2022/12/04 10:56:20;;;;;;;57.40;39.40;;;8.90;88.90;;;;;;5007957;28;20534;-62
2022/12/04 10:59:03;;;;;;;57.53;39.10;;;8.80;88.20;;;;;;5004390;28;20490;-64
2022/12/04 11:01:32;;;;;;;47.70;32.65;;;8.70;88.50;;;;;;5002308;28;20508;-66
2022/12/04 11:04:18;;;;;;;46.15;31.15;;;8.80;87.70;;;;;;5006925;28;20139;-69
2022/12/04 11:06:44;;;;;;;47.65;31.77;;;8.60;88.00;;;;;;5001687;28;20065;-67
2022/12/04 11:09:23;;;;;;;49.05;33.50;;;8.80;88.00;;;;;;5003320;28;20092;-62
2022/12/04 11:11:50;;;;;;;49.88;32.63;;;8.80;89.40;;;;;;5003645;28;20042;-47
2022/12/04 11:14:19;;;;;;;42.47;30.27;;;8.90;89.60;;;;;;5004886;28;20030;-70
2022/12/04 11:16:48;;;;;;;45.00;30.10;;;8.80;88.10;;;;;;5000626;28;20061;-65
2022/12/04 11:19:23;;;;;;;46.05;31.35;;;8.80;87.90;;;;;;5008744;28;20041;-56
2022/12/04 11:21:50;;;;;;;45.60;31.38;;;8.90;87.80;;;;;;5006108;28;20026;-54
2022/12/04 11:24:24;;;;;;;48.22;31.92;;;9.00;86.40;;;;;;5012106;28;20079;-58
2022/12/04 11:26:50;;;;;;;47.42;32.35;;;8.90;86.80;;;;;;5015541;28;20224;-50
2022/12/04 11:29:19;;;;;;;47.55;33.25;;;8.60;88.50;;;;;;5006871;28;20021;-58
2022/12/04 11:31:53;;;;;;;38.72;27.58;;;8.80;87.90;;;;;;5011919;28;20038;-56
2022/12/04 11:34:28;;;;;;;39.33;29.40;;;8.90;86.80;;;;;;5017142;28;20022;-67
2022/12/04 11:36:56;;;;;;;34.35;25.33;;;9.00;86.60;;;;;;5004454;28;20044;-55
2022/12/04 11:39:21;;;;;;;37.00;26.27;;;9.10;86.20;;;;;;5008834;28;20149;-57
2022/12/04 11:41:57;;;;;;;35.90;25.30;;;8.70;87.60;;;;;;5011423;28;20564;-62
2022/12/04 11:44:29;;;;;;;35.05;26.13;;;8.90;88.00;;;;;;5010163;28;20080;-63
2022/12/04 11:46:57;;;;;;;33.85;25.05;;;9.10;86.40;;;;;;5021784;28;20037;-62
2022/12/04 11:49:24;;;;;;;33.05;23.02;;;9.20;84.80;;;;;;5015274;28;20109;-68
2022/12/04 11:52:11;;;;;;;32.03;22.67;;;9.10;85.60;;;;;;5003299;28;20174;-67
2022/12/04 11:55:01;;;;;;;33.88;23.98;;;9.30;86.10;;;;;;5028022;28;20037;-51
2022/12/04 11:57:46;;;;;;;32.30;23.40;;;9.30;85.70;;;;;;5016059;28;20088;-63
2022/12/04 12:00:20;;;;;;;31.83;22.48;;;9.20;85.50;;;;;;5009360;28;20037;-69
2022/12/04 12:02:55;;;;;;;30.50;22.85;;;9.10;84.30;;;;;;5006251;28;20025;-69
2022/12/04 12:05:46;;;;;;;31.25;22.65;;;9.10;85.70;;;;;;5006137;28;20035;-62
2022/12/04 12:08:18;;;;;;;33.03;24.05;;;9.20;85.70;;;;;;5007354;28;20073;-68
2022/12/04 12:11:15;;;;;;;32.85;24.20;;;9.30;84.40;;;;;;5010926;28;20033;-54
2022/12/04 12:13:49;;;;;;;35.00;24.52;;;9.30;85.30;;;;;;5014930;28;20033;-52
2022/12/04 12:16:35;;;;;;;33.35;25.77;;;9.50;84.80;;;;;;5009060;28;20026;-70
2022/12/04 12:19:33;;;;;;;36.72;26.92;;;9.40;84.60;;;;;;5003363;28;20426;-69
2022/12/04 12:22:25;;;;;;;39.15;28.40;;;9.20;84.00;;;;;;4974723;28;20133;-55
2022/12/04 12:25:03;;;;;;;37.38;28.80;;;9.00;84.60;;;;;;4970626;28;20034;-48
2022/12/04 12:27:31;;;;;;;40.03;30.98;;;8.90;85.20;;;;;;5000354;28;20425;-52
2022/12/04 12:30:16;;;;;;;43.13;30.95;;;8.90;85.10;;;;;;4997192;28;20030;-52
2022/12/04 12:32:59;;;;;;;46.42;35.00;;;8.80;85.50;;;;;;5004369;28;20030;-62
2022/12/04 12:35:30;;;;;;;39.75;31.40;;;8.70;86.00;;;;;;5006149;28;20057;-54
2022/12/04 12:38:04;;;;;;;43.33;32.80;;;8.80;85.70;;;;;;5005315;28;20026;-63
2022/12/04 12:40:29;;;;;;;41.50;34.50;;;8.80;86.30;;;;;;5008475;28;20022;-64
2022/12/04 12:43:00;;;;;;;44.83;35.30;;;8.90;85.80;;;;;;5009675;28;20049;-57
2022/12/04 12:45:48;;;;;;;45.45;33.50;;;9.00;85.90;;;;;;5005272;28;20258;-60
2022/12/04 12:48:29;;;;;;;41.88;31.77;;;9.00;85.20;;;;;;5010497;28;20197;-53
2022/12/04 12:51:24;;;;;;;44.65;32.60;;;9.10;86.70;;;;;;5009274;28;20041;-57
2022/12/04 12:53:52;;;;;;;41.20;33.90;;;9.10;86.30;;;;;;5017530;28;20570;-57
2022/12/04 12:56:24;;;;;;;37.20;29.50;;;9.40;85.80;;;;;;5016777;28;20026;-63
2022/12/04 12:58:57;;;;;;;41.85;30.02;;;9.30;85.80;;;;;;5012747;28;20026;-69
2022/12/04 13:01:38;;;;;;;33.08;26.00;;;9.40;85.50;;;;;;5004732;28;20026;-57
2022/12/04 13:04:40;;;;;;;34.72;25.70;;;9.40;85.70;;;;;;5007600;28;20034;-56
2022/12/04 13:07:17;;;;;;;35.28;26.60;;;9.40;86.20;;;;;;5007276;28;20135;-64
2022/12/04 13:10:01;;;;;;;33.75;26.20;;;9.40;85.10;;;;;;5009100;28;20160;-57
2022/12/04 13:12:27;;;;;;;30.27;24.17;;;9.30;84.90;;;;;;5007443;28;20132;-63
2022/12/04 13:14:53;;;;;;;33.47;24.33;;;9.20;86.20;;;;;;5006935;28;20021;-70